Time;durP1;ratioP1;P1;durP2;ratioP2;P2;SDS_P1;SDS_P2;PMS_P1;PMS_P2;Temp;Humidity;BMP_temperature;BMP_pressure;BME280_temperature;BME280_humidity;BME280_pressure;Samples;Min_cycle;Max_cycle;Signal;HPM_P1;HPM_P2
2022/06/18 00:01:45;;;;;;;1.23;1.23;;;17.10;99.90;;;;;;493996;241;28845;-72
2022/06/18 00:03:46;;;;;;;1.30;1.30;;;17.00;99.90;;;;;;494026;241;28797;-71
2022/06/18 00:05:47;;;;;;;1.30;1.30;;;17.00;99.90;;;;;;494000;241;28839;-72
2022/06/18 00:07:49;;;;;;;1.20;1.20;;;16.90;99.90;;;;;;493861;241;28821;-71
2022/06/18 00:09:50;;;;;;;1.30;1.30;;;16.90;99.90;;;;;;493999;241;28896;-71
2022/06/18 00:14:11;;;;;;;1.33;1.33;;;16.90;99.90;;;;;;494016;241;28915;-71
2022/06/18 00:16:12;;;;;;;1.30;1.30;;;16.80;99.90;;;;;;494046;241;28805;-71
2022/06/18 00:18:13;;;;;;;1.20;1.20;;;16.80;99.90;;;;;;494019;241;28820;-73
2022/06/18 00:20:14;;;;;;;1.50;1.40;;;16.80;99.90;;;;;;494023;241;28827;-71
2022/06/18 00:22:16;;;;;;;1.40;1.30;;;16.70;99.90;;;;;;494035;241;28952;-71
2022/06/18 00:24:17;;;;;;;1.20;1.20;;;16.70;99.90;;;;;;493977;241;28823;-71
2022/06/18 00:26:18;;;;;;;1.20;1.10;;;16.70;99.90;;;;;;494041;241;28887;-71
2022/06/18 00:28:19;;;;;;;1.80;1.70;;;16.70;99.90;;;;;;494016;241;28911;-71
2022/06/18 00:30:21;;;;;;;1.60;1.50;;;16.70;99.90;;;;;;494022;241;29258;-70
2022/06/18 00:32:22;;;;;;;1.50;1.40;;;16.60;99.90;;;;;;494039;241;29287;-71
2022/06/18 00:34:23;;;;;;;1.43;1.37;;;16.70;99.90;;;;;;494026;241;29246;-71
2022/06/18 00:36:24;;;;;;;1.70;1.60;;;16.70;99.90;;;;;;494065;241;29328;-71
2022/06/18 00:38:26;;;;;;;1.50;1.40;;;16.70;99.90;;;;;;494035;241;28846;-72
2022/06/18 00:40:27;;;;;;;1.63;1.53;;;16.60;99.90;;;;;;494026;241;28890;-71
2022/06/18 00:42:28;;;;;;;1.57;1.47;;;16.60;99.90;;;;;;494016;241;28859;-71
2022/06/18 00:44:29;;;;;;;1.33;1.33;;;16.60;99.90;;;;;;493926;241;28837;-71
2022/06/18 00:46:31;;;;;;;3.07;1.50;;;16.60;99.90;;;;;;494052;241;28922;-71
2022/06/18 00:48:32;;;;;;;1.77;1.67;;;16.50;99.90;;;;;;494043;241;28840;-73
2022/06/18 00:50:33;;;;;;;1.53;1.43;;;16.50;99.90;;;;;;494043;241;28794;-71
2022/06/18 00:52:34;;;;;;;1.60;1.50;;;16.50;99.90;;;;;;494038;241;28854;-71
2022/06/18 00:54:36;;;;;;;1.53;1.43;;;16.50;99.90;;;;;;494024;241;28801;-71
2022/06/18 00:56:37;;;;;;;1.53;1.43;;;16.50;99.90;;;;;;494010;240;29260;-71
2022/06/18 00:58:38;;;;;;;1.87;1.77;;;16.40;99.90;;;;;;494051;241;29307;-71
2022/06/18 01:00:39;;;;;;;1.70;1.60;;;16.30;99.90;;;;;;494070;241;29371;-71
2022/06/18 01:02:41;;;;;;;1.57;1.50;;;16.30;99.90;;;;;;493944;241;28892;-71
2022/06/18 01:04:42;;;;;;;1.60;1.50;;;16.20;99.90;;;;;;494043;241;28888;-71
2022/06/18 01:06:43;;;;;;;1.50;1.40;;;16.20;99.90;;;;;;494041;241;28897;-71
2022/06/18 01:08:44;;;;;;;1.70;1.60;;;16.20;99.90;;;;;;494073;241;28904;-72
2022/06/18 01:10:46;;;;;;;1.60;1.50;;;16.10;99.90;;;;;;494052;241;28784;-71
2022/06/18 01:12:47;;;;;;;1.50;1.40;;;16.10;99.90;;;;;;493947;241;28947;-71
2022/06/18 01:14:48;;;;;;;1.73;1.63;;;16.20;99.90;;;;;;493952;241;28922;-71
2022/06/18 01:16:50;;;;;;;1.67;1.60;;;16.20;99.90;;;;;;493985;241;29259;-71
2022/06/18 01:18:51;;;;;;;1.60;1.50;;;16.20;99.90;;;;;;494037;239;29408;-73
2022/06/18 01:20:52;;;;;;;1.40;1.40;;;16.20;99.90;;;;;;494051;241;29278;-71
2022/06/18 01:22:53;;;;;;;1.63;1.53;;;16.20;99.90;;;;;;494025;241;28825;-71
2022/06/18 01:24:55;;;;;;;1.47;1.47;;;16.20;99.90;;;;;;493976;241;28834;-71
2022/06/18 01:26:56;;;;;;;1.60;1.50;;;16.20;99.90;;;;;;494030;241;28899;-70
2022/06/18 01:28:57;;;;;;;1.50;1.40;;;16.20;99.90;;;;;;494028;241;28829;-73
2022/06/18 01:30:58;;;;;;;1.60;1.50;;;16.20;99.90;;;;;;493986;241;28785;-71
2022/06/18 01:33:00;;;;;;;1.30;1.30;;;16.20;99.90;;;;;;494016;241;28826;-71
2022/06/18 01:35:01;;;;;;;1.53;1.43;;;16.20;99.90;;;;;;494020;241;28824;-71
2022/06/18 01:37:02;;;;;;;1.50;1.40;;;16.30;99.90;;;;;;493868;241;28788;-71
2022/06/18 01:39:03;;;;;;;1.63;1.60;;;16.30;99.90;;;;;;494034;241;28819;-72
2022/06/18 01:43:24;;;;;;;1.20;1.20;;;16.30;99.90;;;;;;493985;241;28842;-71
2022/06/18 01:45:25;;;;;;;1.50;1.43;;;16.30;99.90;;;;;;494042;241;29308;-71
2022/06/18 01:47:26;;;;;;;1.30;1.30;;;16.30;99.90;;;;;;494045;241;28813;-71
2022/06/18 01:49:28;;;;;;;1.50;1.50;;;16.30;99.90;;;;;;493987;237;28827;-71
2022/06/18 01:51:29;;;;;;;1.30;1.30;;;16.30;99.90;;;;;;493993;241;29212;-71
2022/06/18 01:53:30;;;;;;;1.37;1.27;;;16.20;99.90;;;;;;493993;241;29342;-70
2022/06/18 01:55:31;;;;;;;1.53;1.50;;;16.20;99.90;;;;;;493991;241;29470;-73
2022/06/18 01:57:33;;;;;;;1.30;1.30;;;16.30;99.90;;;;;;494000;241;28799;-70
2022/06/18 01:59:34;;;;;;;1.60;1.50;;;16.30;99.90;;;;;;494023;241;28911;-71
2022/06/18 02:01:35;;;;;;;1.57;1.50;;;16.30;99.90;;;;;;494006;241;28908;-71
2022/06/18 02:03:36;;;;;;;1.30;1.27;;;16.30;99.90;;;;;;493904;241;28946;-71
2022/06/18 02:05:40;;;;;;;1.40;1.40;;;16.30;99.90;;;;;;494031;241;28930;-71
2022/06/18 02:07:43;;;;;;;1.40;1.40;;;16.30;99.90;;;;;;494045;241;28851;-71
2022/06/18 02:09:44;;;;;;;1.50;1.40;;;16.30;99.90;;;;;;493980;241;28859;-71
2022/06/18 02:11:44;;;;;;;1.50;1.40;;;16.30;99.90;;;;;;494024;241;28825;-71
2022/06/18 02:13:45;;;;;;;1.33;1.23;;;16.20;99.90;;;;;;494025;241;29302;-71
2022/06/18 02:15:47;;;;;;;1.40;1.40;;;16.20;99.90;;;;;;494010;241;29372;-71
2022/06/18 02:17:48;;;;;;;1.33;1.33;;;16.20;99.90;;;;;;494007;241;29230;-71
2022/06/18 02:19:49;;;;;;;1.47;1.47;;;16.10;99.90;;;;;;494029;241;29266;-71
2022/06/18 02:21:50;;;;;;;1.57;1.47;;;16.10;99.90;;;;;;494031;241;28904;-72
2022/06/18 02:23:52;;;;;;;1.53;1.43;;;16.10;99.90;;;;;;493889;241;28798;-71
2022/06/18 02:25:53;;;;;;;1.47;1.47;;;16.10;99.90;;;;;;494024;241;28922;-71
2022/06/18 02:27:54;;;;;;;1.57;1.47;;;16.10;99.90;;;;;;494025;241;28835;-72
2022/06/18 02:29:55;;;;;;;1.60;1.50;;;16.00;99.90;;;;;;494025;241;28938;-72
2022/06/18 02:31:57;;;;;;;1.50;1.40;;;16.00;99.90;;;;;;493945;241;28853;-71
2022/06/18 02:33:58;;;;;;;1.30;1.30;;;16.00;99.90;;;;;;494020;241;28818;-71
2022/06/18 02:35:59;;;;;;;1.50;1.50;;;16.10;99.90;;;;;;494017;241;28820;-71
2022/06/18 02:38:00;;;;;;;1.63;1.53;;;16.10;99.90;;;;;;494032;241;28827;-74
2022/06/18 02:40:02;;;;;;;1.47;1.40;;;16.10;99.90;;;;;;493884;241;29247;-70
2022/06/18 02:42:03;;;;;;;1.57;1.47;;;16.10;99.90;;;;;;493975;241;29305;-72
2022/06/18 02:44:04;;;;;;;1.50;1.40;;;16.00;99.90;;;;;;494028;241;29344;-70
2022/06/18 02:46:05;;;;;;;1.70;1.60;;;16.10;99.90;;;;;;494024;241;28967;-71
2022/06/18 02:48:08;;;;;;;1.30;1.30;;;16.00;99.90;;;;;;493953;241;28850;-73
2022/06/18 02:50:08;;;;;;;1.67;1.57;;;16.00;99.90;;;;;;493954;241;28795;-71
2022/06/18 02:52:09;;;;;;;1.20;1.20;;;16.00;99.90;;;;;;494076;241;28830;-71
2022/06/18 02:54:10;;;;;;;1.40;1.30;;;16.00;99.90;;;;;;494026;241;28868;-71
2022/06/18 02:56:12;;;;;;;1.20;1.20;;;16.10;99.90;;;;;;494020;241;28859;-71
2022/06/18 02:58:13;;;;;;;1.70;1.60;;;16.00;99.90;;;;;;494058;241;28830;-72
2022/06/18 03:00:14;;;;;;;1.50;1.40;;;16.00;99.90;;;;;;494044;241;28798;-71
2022/06/18 03:02:15;;;;;;;1.40;1.40;;;15.90;99.90;;;;;;494035;241;29283;-72
2022/06/18 03:04:17;;;;;;;1.33;1.33;;;15.90;99.90;;;;;;494027;241;29342;-71
2022/06/18 03:06:18;;;;;;;1.93;1.83;;;16.00;99.90;;;;;;493552;241;29339;-71
2022/06/18 03:08:19;;;;;;;1.60;1.50;;;16.00;99.90;;;;;;493974;241;28838;-73
2022/06/18 03:12:40;;;;;;;1.40;1.40;;;15.90;99.90;;;;;;493999;241;28823;-71
2022/06/18 03:14:41;;;;;;;1.60;1.50;;;15.90;99.90;;;;;;493985;241;29307;-73
2022/06/18 03:16:43;;;;;;;1.40;1.30;;;15.90;99.90;;;;;;494005;241;29367;-71
2022/06/18 03:18:44;;;;;;;1.40;1.40;;;15.90;99.90;;;;;;493742;241;29329;-71
2022/06/18 03:20:45;;;;;;;1.60;1.50;;;15.90;99.90;;;;;;493878;241;28918;-71
2022/06/18 03:22:46;;;;;;;1.60;1.50;;;15.90;99.90;;;;;;493965;241;28794;-71
2022/06/18 03:24:48;;;;;;;1.37;1.37;;;15.80;99.90;;;;;;493862;241;28828;-72
2022/06/18 03:26:49;;;;;;;1.50;1.50;;;15.80;99.90;;;;;;493975;241;28784;-70
2022/06/18 03:28:50;;;;;;;1.50;1.50;;;15.80;99.90;;;;;;493960;241;28914;-71
2022/06/18 03:30:51;;;;;;;1.60;1.50;;;15.80;99.90;;;;;;493938;241;28792;-71
2022/06/18 03:32:53;;;;;;;1.33;1.33;;;15.80;99.90;;;;;;494010;241;28826;-71
2022/06/18 03:34:54;;;;;;;1.57;1.47;;;15.80;99.90;;;;;;493988;241;28911;-73
2022/06/18 03:36:56;;;;;;;1.70;1.60;;;15.80;99.90;;;;;;494006;241;28852;-70
2022/06/18 03:38:56;;;;;;;1.70;1.60;;;15.80;99.90;;;;;;493806;241;29376;-71
2022/06/18 03:40:58;;;;;;;2.00;1.80;;;15.80;99.90;;;;;;494008;241;29256;-71
2022/06/18 03:42:59;;;;;;;1.60;1.60;;;15.90;99.90;;;;;;494000;241;29270;-71
2022/06/18 03:45:00;;;;;;;1.30;1.30;;;15.90;99.90;;;;;;493998;241;29404;-71
2022/06/18 03:47:01;;;;;;;1.70;1.60;;;15.90;99.90;;;;;;493913;241;28785;-71
2022/06/18 03:49:03;;;;;;;1.40;1.40;;;15.90;99.90;;;;;;493935;241;28853;-71
2022/06/18 03:51:04;;;;;;;1.40;1.40;;;15.90;99.90;;;;;;493988;241;28852;-70
2022/06/18 03:53:05;;;;;;;1.70;1.60;;;15.90;99.90;;;;;;494006;241;28832;-71
2022/06/18 03:55:06;;;;;;;1.43;1.43;;;16.00;99.90;;;;;;494036;241;28913;-72
2022/06/18 03:57:08;;;;;;;1.67;1.60;;;16.00;99.90;;;;;;494001;241;28781;-71
2022/06/18 03:59:09;;;;;;;2.00;1.40;;;16.00;99.90;;;;;;494017;241;28833;-71
2022/06/18 04:01:10;;;;;;;1.30;1.30;;;16.00;99.90;;;;;;494000;241;28826;-70
2022/06/18 04:03:12;;;;;;;1.43;1.40;;;16.00;99.90;;;;;;494007;241;29257;-71
2022/06/18 04:05:13;;;;;;;1.37;1.30;;;15.90;99.90;;;;;;494001;239;29362;-72
2022/06/18 04:07:14;;;;;;;1.53;1.43;;;16.00;99.90;;;;;;494009;241;29260;-71
2022/06/18 04:09:15;;;;;;;1.53;1.43;;;16.00;99.90;;;;;;494000;241;29380;-72
2022/06/18 04:11:16;;;;;;;1.40;1.40;;;16.10;99.90;;;;;;494021;241;28846;-71
2022/06/18 04:13:18;;;;;;;1.60;1.50;;;16.20;99.90;;;;;;493889;241;28922;-71
2022/06/18 04:15:19;;;;;;;1.60;1.53;;;16.20;99.90;;;;;;493915;241;28950;-74
2022/06/18 04:17:20;;;;;;;1.40;1.40;;;16.30;99.90;;;;;;494025;241;28931;-71
2022/06/18 04:19:21;;;;;;;1.47;1.40;;;16.30;99.90;;;;;;494028;241;28856;-71
2022/06/18 04:21:23;;;;;;;1.50;1.43;;;16.30;99.90;;;;;;494038;241;28878;-71
2022/06/18 04:23:24;;;;;;;1.80;1.70;;;16.30;99.90;;;;;;494046;241;29317;-71
2022/06/18 04:25:25;;;;;;;1.87;1.60;;;16.40;99.90;;;;;;494053;241;30129;-74
2022/06/18 04:27:26;;;;;;;1.60;1.50;;;16.40;99.90;;;;;;494043;241;29425;-71
2022/06/18 04:29:31;;;;;;;1.80;1.70;;;16.50;99.90;;;;;;494045;241;28852;-72
2022/06/18 04:31:32;;;;;;;1.50;1.50;;;16.50;99.90;;;;;;493976;241;28928;-72
2022/06/18 04:33:33;;;;;;;1.80;1.70;;;16.60;99.90;;;;;;493923;241;28891;-71
2022/06/18 04:35:34;;;;;;;1.40;1.40;;;16.60;99.90;;;;;;494009;241;28911;-71
2022/06/18 04:37:35;;;;;;;1.80;1.70;;;16.60;99.90;;;;;;494056;241;29180;-74
2022/06/18 04:39:37;;;;;;;2.13;2.03;;;16.70;99.90;;;;;;494077;241;28878;-71
2022/06/18 04:41:38;;;;;;;1.80;1.70;;;16.80;99.90;;;;;;494051;237;28830;-71
2022/06/18 04:43:39;;;;;;;1.47;1.47;;;16.80;99.90;;;;;;494018;241;28900;-71
2022/06/18 04:45:40;;;;;;;1.60;1.50;;;16.90;99.90;;;;;;494029;241;28828;-71
2022/06/18 04:47:42;;;;;;;2.00;1.90;;;16.90;99.90;;;;;;493973;241;29320;-73
2022/06/18 04:49:43;;;;;;;1.93;1.83;;;17.00;99.90;;;;;;494060;241;29262;-72
2022/06/18 04:51:44;;;;;;;2.43;1.70;;;17.10;99.90;;;;;;493969;241;29401;-72
2022/06/18 04:53:45;;;;;;;1.50;1.50;;;17.20;99.90;;;;;;493906;241;28956;-71
2022/06/18 04:55:47;;;;;;;1.47;1.47;;;17.30;99.90;;;;;;494003;241;28971;-72
2022/06/18 04:57:48;;;;;;;1.60;1.50;;;17.30;99.90;;;;;;494030;241;28838;-73
2022/06/18 04:59:49;;;;;;;1.80;1.70;;;17.40;99.90;;;;;;493891;241;28805;-71
2022/06/18 05:01:50;;;;;;;1.90;1.80;;;17.40;99.90;;;;;;493799;241;28826;-71
2022/06/18 05:03:52;;;;;;;1.80;1.70;;;17.50;99.90;;;;;;493880;241;28869;-71
2022/06/18 05:05:53;;;;;;;1.70;1.60;;;17.60;99.90;;;;;;493865;241;28847;-71
2022/06/18 05:07:54;;;;;;;1.90;1.80;;;17.60;99.90;;;;;;493970;241;28819;-72
2022/06/18 05:09:55;;;;;;;1.80;1.70;;;17.70;99.90;;;;;;494059;241;28863;-71
2022/06/18 05:11:57;;;;;;;1.70;1.60;;;17.70;99.90;;;;;;494045;241;29306;-73
2022/06/18 05:13:58;;;;;;;1.63;1.57;;;17.80;99.90;;;;;;494045;241;29235;-72
2022/06/18 05:15:59;;;;;;;1.87;1.77;;;17.90;99.90;;;;;;494027;241;29305;-73
2022/06/18 05:18:00;;;;;;;2.00;1.90;;;18.00;99.90;;;;;;494030;241;28946;-74
2022/06/18 05:20:02;;;;;;;1.93;1.83;;;18.10;99.90;;;;;;493987;241;28889;-71
2022/06/18 05:22:03;;;;;;;1.80;1.70;;;18.20;99.90;;;;;;494031;241;28823;-72
2022/06/18 05:24:04;;;;;;;1.70;1.60;;;18.20;99.90;;;;;;494048;241;28853;-71
2022/06/18 05:26:05;;;;;;;1.60;1.50;;;18.30;99.90;;;;;;493848;241;28831;-71
2022/06/18 05:28:07;;;;;;;1.70;1.60;;;18.40;99.90;;;;;;494036;241;28948;-74
2022/06/18 05:30:08;;;;;;;1.90;1.80;;;18.50;99.90;;;;;;494040;241;28923;-72
2022/06/18 05:32:09;;;;;;;1.70;1.60;;;18.60;99.90;;;;;;494031;241;28858;-73
2022/06/18 05:34:10;;;;;;;2.50;1.90;;;18.70;99.90;;;;;;493977;241;28857;-72
2022/06/18 05:36:13;;;;;;;1.50;1.50;;;18.70;99.90;;;;;;494013;241;29422;-71
2022/06/18 05:38:13;;;;;;;1.50;1.50;;;18.80;99.90;;;;;;493943;241;29420;-74
2022/06/18 05:40:14;;;;;;;1.70;1.60;;;18.90;99.90;;;;;;494080;241;29270;-72
2022/06/18 05:42:15;;;;;;;1.40;1.40;;;18.90;99.90;;;;;;494033;241;29374;-72
2022/06/18 05:44:17;;;;;;;1.77;1.67;;;19.00;99.90;;;;;;494041;241;28787;-72
2022/06/18 05:46:18;;;;;;;1.63;1.53;;;19.10;99.90;;;;;;494012;241;28852;-72
2022/06/18 05:48:19;;;;;;;1.80;1.70;;;19.10;99.90;;;;;;494039;241;28845;-75
2022/06/18 05:50:20;;;;;;;1.80;1.70;;;19.10;99.90;;;;;;493973;241;28873;-72
2022/06/18 05:52:22;;;;;;;1.80;1.70;;;19.20;99.90;;;;;;493975;241;28826;-73
2022/06/18 05:54:23;;;;;;;1.67;1.57;;;19.20;99.90;;;;;;494076;241;28878;-72
2022/06/18 05:56:24;;;;;;;1.57;1.57;;;19.30;99.90;;;;;;494019;241;28838;-72
2022/06/18 05:58:25;;;;;;;1.70;1.60;;;19.40;99.90;;;;;;494065;241;28855;-75
2022/06/18 06:00:27;;;;;;;1.87;1.77;;;19.50;99.90;;;;;;494039;241;28780;-72
2022/06/18 06:02:28;;;;;;;1.60;1.50;;;19.60;99.90;;;;;;494034;241;29291;-72
2022/06/18 06:04:29;;;;;;;2.13;1.90;;;19.70;99.90;;;;;;493997;241;29253;-73
2022/06/18 06:06:30;;;;;;;1.70;1.60;;;19.80;99.90;;;;;;493969;241;29343;-72
2022/06/18 06:08:32;;;;;;;1.37;1.37;;;19.90;99.90;;;;;;494056;241;28928;-75
2022/06/18 06:12:53;;;;;;;1.70;1.60;;;20.10;99.90;;;;;;494050;241;29318;-72
2022/06/18 06:14:55;;;;;;;1.60;1.50;;;20.30;99.90;;;;;;494036;241;29365;-74
2022/06/18 06:16:57;;;;;;;1.43;1.40;;;20.40;99.90;;;;;;493928;241;29276;-72
2022/06/18 06:18:56;;;;;;;1.50;1.50;;;20.50;99.90;;;;;;493935;241;28854;-72
2022/06/18 06:20:58;;;;;;;1.20;1.20;;;20.60;99.90;;;;;;494060;241;28777;-72
2022/06/18 06:22:59;;;;;;;1.53;1.43;;;20.70;99.90;;;;;;494040;241;28848;-73
2022/06/18 06:25:01;;;;;;;1.80;1.70;;;20.80;99.90;;;;;;494044;241;28868;-73
2022/06/18 06:27:01;;;;;;;1.73;1.63;;;20.80;99.90;;;;;;494018;241;28882;-72
2022/06/18 06:29:03;;;;;;;1.33;1.30;;;20.90;99.90;;;;;;494040;241;28930;-73
2022/06/18 06:31:04;;;;;;;1.60;1.50;;;21.10;99.90;;;;;;493971;241;28910;-71
2022/06/18 06:33:05;;;;;;;1.40;1.40;;;21.10;99.90;;;;;;494009;241;28821;-72
2022/06/18 06:35:06;;;;;;;1.40;1.40;;;21.30;99.90;;;;;;494050;241;28874;-74
2022/06/18 06:37:08;;;;;;;2.00;1.63;;;21.30;99.90;;;;;;494050;241;29371;-72
2022/06/18 06:39:09;;;;;;;1.67;1.57;;;21.40;99.90;;;;;;494020;241;29337;-73
2022/06/18 06:41:10;;;;;;;1.50;1.40;;;21.40;99.90;;;;;;494038;241;29252;-72
2022/06/18 06:43:11;;;;;;;1.60;1.50;;;21.50;99.90;;;;;;494030;241;29318;-72
2022/06/18 06:45:13;;;;;;;1.30;1.30;;;21.60;99.90;;;;;;494041;241;28943;-75
2022/06/18 06:47:14;;;;;;;1.43;1.40;;;21.60;99.90;;;;;;494010;241;28911;-72
2022/06/18 06:49:15;;;;;;;1.67;1.57;;;21.70;99.90;;;;;;494040;241;28822;-72
2022/06/18 06:51:16;;;;;;;1.90;1.80;;;21.80;99.90;;;;;;494027;241;28944;-72
2022/06/18 06:53:18;;;;;;;1.77;1.67;;;21.90;99.90;;;;;;493930;241;28826;-72
2022/06/18 06:57:38;;;;;;;1.90;1.80;;;22.00;99.90;;;;;;494013;241;28789;-72
2022/06/18 06:59:40;;;;;;;1.97;1.63;;;22.10;99.90;;;;;;494014;241;28870;-73
2022/06/18 07:01:41;;;;;;;1.30;1.27;;;22.10;99.90;;;;;;493901;241;29419;-72
2022/06/18 07:03:42;;;;;;;1.83;1.73;;;22.30;99.90;;;;;;493988;237;29235;-72
2022/06/18 07:05:44;;;;;;;1.30;1.30;;;22.30;99.90;;;;;;493924;241;29369;-73
2022/06/18 07:07:45;;;;;;;1.30;1.30;;;22.40;99.90;;;;;;493987;241;28803;-72
2022/06/18 07:09:46;;;;;;;1.40;1.40;;;22.40;99.90;;;;;;494032;241;28915;-72
2022/06/18 07:11:47;;;;;;;1.50;1.40;;;22.50;99.90;;;;;;493987;241;28906;-73
2022/06/18 07:13:48;;;;;;;1.80;1.70;;;22.50;99.90;;;;;;493948;241;28779;-72
2022/06/18 07:15:50;;;;;;;1.77;1.50;;;22.70;99.90;;;;;;494012;241;28815;-72
2022/06/18 07:17:51;;;;;;;1.60;1.53;;;22.70;99.90;;;;;;494013;241;28792;-72
2022/06/18 07:19:52;;;;;;;1.50;1.50;;;22.80;99.90;;;;;;493868;241;28955;-72
2022/06/18 07:21:53;;;;;;;3.57;1.40;;;22.80;99.90;;;;;;493921;241;28899;-74
2022/06/18 07:23:55;;;;;;;2.07;1.50;;;22.90;99.90;;;;;;494035;241;28810;-72
2022/06/18 07:25:56;;;;;;;1.97;1.50;;;23.00;99.90;;;;;;493921;241;29400;-72
2022/06/18 07:27:57;;;;;;;1.50;1.40;;;23.00;99.90;;;;;;493993;241;29237;-72
2022/06/18 07:29:58;;;;;;;1.60;1.50;;;23.00;99.90;;;;;;494027;241;29389;-72
2022/06/18 07:32:00;;;;;;;1.43;1.43;;;23.00;99.90;;;;;;494025;241;28833;-73
2022/06/18 07:34:01;;;;;;;1.43;1.40;;;23.10;99.90;;;;;;494050;241;28790;-72
2022/06/18 07:36:02;;;;;;;1.10;1.10;;;23.20;99.90;;;;;;493996;241;28911;-73
2022/06/18 07:38:03;;;;;;;1.60;1.50;;;23.30;99.90;;;;;;494058;241;28800;-72
2022/06/18 07:40:05;;;;;;;1.40;1.40;;;23.50;99.90;;;;;;494029;241;28888;-72
2022/06/18 07:42:06;;;;;;;1.50;1.40;;;23.70;99.90;;;;;;494078;241;28955;-75
2022/06/18 07:44:07;;;;;;;1.50;1.40;;;23.70;99.90;;;;;;493945;241;28876;-72
2022/06/18 07:46:10;;;;;;;1.17;1.17;;;23.70;99.90;;;;;;494057;241;28915;-72
2022/06/18 07:48:10;;;;;;;1.40;1.30;;;23.80;99.90;;;;;;493947;241;29341;-72
2022/06/18 07:50:11;;;;;;;1.30;1.30;;;23.90;99.90;;;;;;494016;241;29280;-72
2022/06/18 07:52:15;;;;;;;1.70;1.60;;;23.90;99.90;;;;;;493964;241;29323;-73
2022/06/18 07:54:13;;;;;;;2.10;1.70;;;24.00;99.90;;;;;;493831;241;28912;-72
2022/06/18 07:56:15;;;;;;;1.50;1.50;;;24.10;99.90;;;;;;494037;241;28814;-72
2022/06/18 07:58:16;;;;;;;1.70;1.60;;;24.10;99.90;;;;;;494015;241;28851;-72
2022/06/18 08:00:17;;;;;;;1.60;1.50;;;24.20;99.90;;;;;;493856;241;28824;-72
2022/06/18 08:02:19;;;;;;;1.80;1.70;;;24.20;99.90;;;;;;494009;241;28924;-73
2022/06/18 08:04:20;;;;;;;1.60;1.50;;;24.30;99.90;;;;;;494045;241;28810;-72
2022/06/18 08:06:21;;;;;;;1.60;1.50;;;24.40;99.90;;;;;;494016;241;28837;-72
2022/06/18 08:08:22;;;;;;;1.70;1.60;;;24.40;99.90;;;;;;493956;241;28852;-72
2022/06/18 08:10:23;;;;;;;5.33;1.57;;;24.50;99.90;;;;;;493994;241;28959;-72
2022/06/18 08:12:25;;;;;;;1.37;1.37;;;24.60;99.90;;;;;;494040;241;29345;-76
2022/06/18 08:14:26;;;;;;;1.30;1.30;;;24.60;99.90;;;;;;494056;241;29404;-72
2022/06/18 08:16:27;;;;;;;1.37;1.30;;;24.70;99.90;;;;;;494026;241;29317;-72
2022/06/18 08:18:28;;;;;;;1.60;1.50;;;24.70;99.90;;;;;;494033;241;29421;-72
2022/06/18 08:20:30;;;;;;;1.67;1.57;;;24.80;99.90;;;;;;494054;241;28838;-72
2022/06/18 08:22:31;;;;;;;1.30;1.30;;;24.80;99.90;;;;;;494082;241;28925;-75
2022/06/18 08:24:32;;;;;;;1.30;1.30;;;24.90;99.90;;;;;;494013;241;28811;-72
2022/06/18 08:26:33;;;;;;;1.43;1.40;;;24.80;99.90;;;;;;494041;241;28817;-72
2022/06/18 08:28:35;;;;;;;1.20;1.20;;;25.00;99.90;;;;;;494014;241;28804;-72
2022/06/18 08:30:36;;;;;;;2.13;1.60;;;25.10;99.90;;;;;;494005;241;29032;-72
2022/06/18 08:32:37;;;;;;;1.60;1.50;;;25.10;99.90;;;;;;493955;241;28862;-73
2022/06/18 08:34:38;;;;;;;1.60;1.50;;;25.10;99.90;;;;;;494040;241;28864;-72
2022/06/18 08:36:40;;;;;;;1.50;1.40;;;25.20;99.90;;;;;;493940;241;29424;-72
2022/06/18 08:38:41;;;;;;;1.30;1.30;;;25.30;99.90;;;;;;493949;241;29330;-72
2022/06/18 08:40:45;;;;;;;1.50;1.40;;;25.50;99.90;;;;;;494038;241;29494;-72
2022/06/18 08:42:43;;;;;;;1.83;1.50;;;25.50;99.90;;;;;;493826;241;29288;-74
2022/06/18 08:44:45;;;;;;;1.60;1.50;;;25.70;99.90;;;;;;494007;241;28786;-72
2022/06/18 08:46:46;;;;;;;1.50;1.40;;;25.70;99.90;;;;;;493983;241;28931;-72
2022/06/18 08:48:48;;;;;;;1.40;1.30;;;25.70;99.90;;;;;;493951;241;28892;-72
2022/06/18 08:50:48;;;;;;;1.73;1.60;;;25.70;99.90;;;;;;494010;241;28915;-72
2022/06/18 08:52:50;;;;;;;1.40;1.30;;;25.80;99.90;;;;;;494037;241;28826;-73
2022/06/18 08:54:51;;;;;;;2.17;1.60;;;25.90;99.90;;;;;;494095;241;28796;-72
2022/06/18 08:56:52;;;;;;;1.20;1.20;;;26.00;99.90;;;;;;494033;241;28899;-74
2022/06/18 08:58:53;;;;;;;1.27;1.23;;;26.00;99.90;;;;;;493928;241;28860;-73
2022/06/18 09:00:55;;;;;;;1.30;1.20;;;26.10;99.90;;;;;;493842;241;28913;-72
2022/06/18 09:02:56;;;;;;;1.60;1.50;;;26.10;99.90;;;;;;494056;241;29316;-74
2022/06/18 09:04:57;;;;;;;1.37;1.30;;;26.20;99.90;;;;;;494082;241;29223;-72
2022/06/18 09:06:58;;;;;;;1.63;1.53;;;26.20;99.90;;;;;;494043;241;29407;-73
2022/06/18 09:09:00;;;;;;;1.30;1.30;;;26.40;99.90;;;;;;493901;241;28790;-72
2022/06/18 09:11:01;;;;;;;1.87;1.63;;;26.40;99.90;;;;;;493940;237;28877;-73
2022/06/18 09:13:02;;;;;;;1.60;1.50;;;26.60;99.90;;;;;;493978;241;28834;-75
2022/06/18 09:15:03;;;;;;;1.30;1.20;;;26.50;99.90;;;;;;494038;241;28792;-73
2022/06/18 09:17:05;;;;;;;1.40;1.40;;;26.50;99.90;;;;;;494052;241;29000;-73
2022/06/18 09:19:06;;;;;;;1.60;1.30;;;26.40;99.90;;;;;;494048;241;28948;-72
2022/06/18 09:21:07;;;;;;;1.37;1.30;;;26.30;99.90;;;;;;494038;241;28920;-72
2022/06/18 09:23:08;;;;;;;1.40;1.30;;;26.50;99.90;;;;;;494008;241;28825;-73
2022/06/18 09:25:10;;;;;;;1.70;1.47;;;26.50;99.90;;;;;;494036;241;28880;-72
2022/06/18 09:27:11;;;;;;;1.80;1.33;;;26.60;99.90;;;;;;494019;241;29389;-72
2022/06/18 09:29:12;;;;;;;1.50;1.40;;;26.60;99.90;;;;;;494032;241;29340;-72
2022/06/18 09:31:13;;;;;;;1.00;1.00;;;26.70;99.90;;;;;;494035;241;29254;-73
2022/06/18 09:33:15;;;;;;;2.10;1.40;;;26.90;99.90;;;;;;493997;237;28899;-74
2022/06/18 09:35:16;;;;;;;1.63;1.50;;;26.90;99.90;;;;;;493889;241;28844;-72
2022/06/18 09:37:17;;;;;;;1.60;1.40;;;26.80;99.90;;;;;;494042;241;28831;-72
2022/06/18 09:39:18;;;;;;;1.83;1.60;;;27.10;99.90;;;;;;493864;241;28781;-72
2022/06/18 09:41:20;;;;;;;2.80;1.97;;;27.30;99.90;;;;;;494022;241;28905;-72
2022/06/18 09:43:21;;;;;;;1.70;1.60;;;27.30;99.90;;;;;;493932;241;28846;-75
2022/06/18 09:45:22;;;;;;;1.60;1.50;;;27.40;99.90;;;;;;494046;241;28809;-72
2022/06/18 09:47:23;;;;;;;2.03;1.87;;;27.30;99.90;;;;;;494050;241;28907;-73
2022/06/18 09:49:25;;;;;;;1.73;1.63;;;27.40;99.90;;;;;;494019;241;29252;-72
2022/06/18 09:51:29;;;;;;;2.20;1.50;;;27.50;99.90;;;;;;494020;241;29317;-73
2022/06/18 09:53:27;;;;;;;1.70;1.60;;;27.50;99.90;;;;;;493815;241;29423;-75
2022/06/18 09:55:28;;;;;;;2.53;1.70;;;27.50;99.90;;;;;;494007;241;29333;-73
2022/06/18 09:57:30;;;;;;;1.73;1.40;;;27.60;99.90;;;;;;494056;241;28860;-72
2022/06/18 09:59:31;;;;;;;2.00;1.90;;;27.60;99.90;;;;;;494031;241;28786;-72
2022/06/18 10:01:32;;;;;;;1.73;1.63;;;27.70;99.90;;;;;;494038;241;28850;-72
2022/06/18 10:08:13;;;;;;;1.93;1.57;;;27.90;99.40;;;;;;494015;241;28807;-72
2022/06/18 10:10:14;;;;;;;1.50;1.43;;;27.90;99.90;;;;;;494018;241;28828;-73
2022/06/18 10:12:15;;;;;;;2.23;1.53;;;28.00;99.90;;;;;;494031;241;28775;-73
2022/06/18 10:14:18;;;;;;;5.43;1.83;;;28.10;99.90;;;;;;494023;241;28832;-73
2022/06/18 10:16:18;;;;;;;1.60;1.50;;;28.20;99.70;;;;;;493882;241;29318;-72
2022/06/18 10:18:19;;;;;;;1.70;1.60;;;28.20;99.90;;;;;;494029;241;28796;-72
2022/06/18 10:20:20;;;;;;;2.10;1.83;;;28.20;99.70;;;;;;494043;241;28921;-74
2022/06/18 10:22:22;;;;;;;1.70;1.60;;;28.20;98.50;;;;;;494052;241;28771;-72
2022/06/18 10:24:23;;;;;;;3.60;1.70;;;28.30;98.20;;;;;;494006;241;28835;-72
2022/06/18 10:26:24;;;;;;;3.13;1.63;;;28.50;99.60;;;;;;494037;241;29340;-74
2022/06/18 10:28:25;;;;;;;2.60;1.43;;;28.50;98.50;;;;;;494019;241;29249;-72
2022/06/18 10:30:26;;;;;;;2.20;1.40;;;28.40;98.60;;;;;;493989;241;29338;-73
2022/06/18 10:32:28;;;;;;;3.73;1.70;;;28.30;98.50;;;;;;494043;241;28886;-73
2022/06/18 10:34:29;;;;;;;4.33;1.50;;;28.50;97.20;;;;;;494041;241;28832;-72
2022/06/18 10:36:30;;;;;;;3.23;1.50;;;28.50;96.60;;;;;;493994;241;28832;-75
2022/06/18 10:38:31;;;;;;;2.30;1.50;;;28.60;96.40;;;;;;494052;241;28948;-73
2022/06/18 10:40:33;;;;;;;3.00;1.90;;;28.80;95.20;;;;;;493924;241;28909;-74
2022/06/18 10:42:34;;;;;;;3.20;1.83;;;29.00;95.10;;;;;;494036;241;28832;-72
2022/06/18 10:44:35;;;;;;;3.80;1.50;;;28.90;94.30;;;;;;493983;241;28823;-72
2022/06/18 10:46:36;;;;;;;3.70;1.70;;;29.10;93.90;;;;;;493994;241;28864;-75
2022/06/18 10:48:38;;;;;;;7.37;1.97;;;29.10;93.40;;;;;;494064;241;29203;-73